Main page
METAR-TAF:

METAR-TAF

Airports :

Mehrabad International Airport

Tehran, Iran

latitude: 35-41N, longitude: 051-21E, elevation: 1204 m

Current weather observation

The report was made 34 minutes ago, at 21:30 UTC
Wind 4 kt from the West/Northwest
Temperature 27°C
Humidity 18%
Pressure 1008 hPa
Visibility 10 km or more
no clouds below 1500 m and no cumulonimbus

METAR: OIII 172130Z 29004KT CAVOK 27/01 Q1008 A2978

Time: 02:34 (22:04 UTC)

Forecast

The report was made 4 hours and 19 minutes ago, at 17:45 UTC
Forecast valid from 17 at 18 UTC to 18 at 24 UTC
Wind 8 kt from the Northwest
Visibility 10 km or more
no clouds below 1500 m and no cumulonimbus
Temporary
from 18 at 12 UTC to 18 at 18 UTC
Wind 17 kt from the Northwest

TAF: OIII 171745Z 1718/1824 31004MPS CAVOK TEMPO 1812/1818 32009MPS

Weather observations and forecasts of more than 4000 airports (METAR and TAF reports).

The available stations are represented by yellow and red dots on the map.

Hover mouse over dot to see the name of the station.

Then click to see weather observations and forecasts.

To change the map : click on the green buttons with a black cross to zoom in, on the green button with a dash to zoom out, or on the green arrows for adjacent maps.


METAR-TAF: